Time;durP1;ratioP1;P1;durP2;ratioP2;P2;SDS_P1;SDS_P2;PMS_P1;PMS_P2;Temp;Humidity;BMP_temperature;BMP_pressure;BME280_temperature;BME280_humidity;BME280_pressure;Samples;Min_cycle;Max_cycle;Signal;HPM_P1;HPM_P2
2023/05/13 00:01:23;;;;;;;11.50;9.38;;;;;;;12.61;99.86;102036.19;4976272;28;20113;-76
2023/05/13 00:03:49;;;;;;;10.88;9.07;;;;;;;12.52;99.68;102013.34;4976513;28;20109;-76
2023/05/13 00:06:14;;;;;;;12.02;9.60;;;;;;;12.59;100.00;102038.03;4976445;28;20023;-78
2023/05/13 00:08:39;;;;;;;10.82;9.52;;;;;;;12.54;100.00;102039.16;4976414;28;20215;-77
2023/05/13 00:11:05;;;;;;;12.05;9.73;;;;;;;12.34;100.00;102009.09;4976303;28;20022;-78
2023/05/13 00:13:30;;;;;;;10.30;9.15;;;;;;;12.45;99.80;102034.44;4976317;28;20434;-77
2023/05/13 00:15:55;;;;;;;10.88;9.63;;;;;;;12.41;100.00;102031.19;4976108;28;20129;-78
2023/05/13 00:18:21;;;;;;;10.82;9.38;;;;;;;12.31;99.46;102014.44;4976207;28;20034;-79
2023/05/13 00:20:46;;;;;;;11.15;8.60;;;;;;;12.39;99.47;102027.84;4976278;28;20035;-80
2023/05/13 00:23:12;;;;;;;11.82;9.32;;;;;;;12.35;99.83;102029.75;4976136;28;20029;-78
2023/05/13 00:25:37;;;;;;;10.50;9.15;;;;;;;12.33;99.41;102031.59;4976027;28;20110;-79
2023/05/13 00:28:03;;;;;;;10.80;8.73;;;;;;;12.33;98.62;102031.59;4975879;28;20022;-80
2023/05/13 00:30:29;;;;;;;12.13;9.50;;;;;;;12.28;100.00;102025.78;4975710;28;20085;-76
2023/05/13 00:32:54;;;;;;;11.77;9.10;;;;;;;12.25;98.97;102025.94;4975809;28;20022;-79
2023/05/13 00:35:20;;;;;;;11.82;9.43;;;;;;;12.15;100.00;102022.16;4975479;28;20066;-77
2023/05/13 00:37:45;;;;;;;10.80;8.98;;;;;;;12.17;99.38;102032.44;4975310;28;20027;-79
2023/05/13 00:40:18;;;;;;;11.02;8.80;;;;;;;11.88;99.03;101985.53;4975884;28;20030;-82
2023/05/13 00:42:43;;;;;;;10.77;9.68;;;;;;;11.99;99.63;102008.28;4975531;28;20066;-83
2023/05/13 00:45:09;;;;;;;11.50;8.90;;;;;;;12.04;97.34;102019.25;4975463;28;20069;-83
2023/05/13 00:47:34;;;;;;;11.88;9.05;;;;;;;12.16;98.81;102033.34;4975899;28;20027;-80
2023/05/13 00:50:00;;;;;;;10.38;9.27;;;;;;;12.16;98.03;102031.59;4975643;28;20053;-83
2023/05/13 00:52:26;;;;;;;12.43;9.60;;;;;;;11.97;99.87;102010.97;4975829;28;20053;-83
2023/05/13 00:54:51;;;;;;;12.75;9.40;;;;;;;12.02;98.31;102019.34;4975452;28;20057;-84
2023/05/13 00:57:16;;;;;;;12.02;9.18;;;;;;;11.95;100.00;102024.91;4975093;28;20047;-83
2023/05/13 00:59:42;;;;;;;12.93;9.13;;;;;;;12.01;99.14;102034.97;4975457;28;20031;-78
2023/05/13 01:02:33;;;;;;;10.60;9.38;;;;;;;11.99;98.76;102035.00;4975281;28;20058;-83
2023/05/13 01:05:04;;;;;;;10.70;9.13;;;;;;;11.83;98.22;102017.75;4975421;28;20031;-80
2023/05/13 01:07:34;;;;;;;11.55;8.95;;;;;;;11.95;97.51;102037.84;4957897;28;20025;-83
2023/05/13 01:10:03;;;;;;;10.60;8.95;;;;;;;11.77;97.69;102011.06;4974987;28;20181;-83
2023/05/13 01:12:32;;;;;;;13.55;9.43;;;;;;;11.86;98.14;102039.13;4975111;28;20018;-79
2023/05/13 01:15:24;;;;;;;10.57;9.25;;;;;;;11.79;100.00;102027.38;4975107;28;20478;-79
2023/05/13 01:17:59;;;;;;;10.23;9.20;;;;;;;11.66;98.05;102016.78;4974479;28;20043;-83
2023/05/13 01:20:26;;;;;;;10.82;8.48;;;;;;;11.51;97.60;102001.19;4974871;28;20497;-83
2023/05/13 01:22:51;;;;;;;10.75;9.65;;;;;;;11.64;99.70;102026.38;4974796;28;20026;-83
2023/05/13 01:25:17;;;;;;;11.50;9.27;;;;;;;11.58;99.09;102031.81;4974891;28;20027;-81
2023/05/13 01:27:42;;;;;;;11.38;10.00;;;;;;;11.53;100.00;102030.38;4974895;28;20502;-85
2023/05/13 01:30:09;;;;;;;12.48;9.80;;;;;;;11.47;100.00;102031.50;4974753;28;20026;-85
2023/05/13 01:32:36;;;;;;;13.82;9.30;;;;;;;11.40;100.00;102035.28;4974697;28;20027;-82
2023/05/13 01:35:02;;;;;;;13.75;10.05;;;;;;;11.22;100.00;102005.97;4974589;28;20031;-83
2023/05/13 01:37:29;;;;;;;11.57;9.32;;;;;;;11.29;100.00;102025.44;4975015;28;20082;-85
2023/05/13 01:39:54;;;;;;;12.23;9.48;;;;;;;11.28;100.00;102033.28;4974575;28;20554;-83
2023/05/13 01:42:20;;;;;;;11.75;9.90;;;;;;;11.21;100.00;102032.75;4974621;28;20113;-85
2023/05/13 01:44:45;;;;;;;10.73;9.00;;;;;;;11.11;100.00;102018.53;4974585;28;20029;-82
2023/05/13 01:47:11;;;;;;;12.10;9.60;;;;;;;11.11;100.00;102029.75;4974080;28;20069;-83
2023/05/13 01:49:36;;;;;;;11.68;9.45;;;;;;;11.15;100.00;102036.44;4974425;28;20079;-85
2023/05/13 01:52:03;;;;;;;12.95;9.10;;;;;;;10.99;98.86;102019.94;4974332;28;20030;-82
2023/05/13 01:54:28;;;;;;;11.65;9.32;;;;;;;11.16;98.55;102034.69;4974326;28;20029;-83
2023/05/13 01:56:54;;;;;;;12.40;9.50;;;;;;;10.91;98.70;102009.97;4974350;28;20035;-84
2023/05/13 01:59:19;;;;;;;11.02;9.73;;;;;;;10.97;100.00;102026.94;4974292;28;20030;-80
2023/05/13 02:01:44;;;;;;;13.23;10.30;;;;;;;10.90;100.00;102015.19;4974064;28;20034;-82
2023/05/13 02:04:10;;;;;;;11.73;9.93;;;;;;;10.98;100.00;102038.13;4974276;28;20031;-84
2023/05/13 02:06:35;;;;;;;12.73;10.10;;;;;;;10.93;100.00;102035.75;4974197;28;20023;-83
2023/05/13 02:09:01;;;;;;;10.95;9.68;;;;;;;10.89;99.83;102034.19;4974070;28;20462;-82
2023/05/13 02:11:26;;;;;;;10.93;9.73;;;;;;;10.91;98.92;102035.81;4974288;28;20031;-82
2023/05/13 02:13:51;;;;;;;10.68;8.95;;;;;;;10.75;99.67;102005.56;4974126;28;20106;-83
2023/05/13 02:16:17;;;;;;;12.82;9.32;;;;;;;10.90;98.90;102039.28;4974117;28;20041;-83
2023/05/13 02:18:43;;;;;;;12.32;9.93;;;;;;;10.66;100.00;102011.13;4974105;28;20539;-84
2023/05/13 02:21:08;;;;;;;11.98;10.60;;;;;;;10.79;100.00;102041.50;4973906;28;20039;-84
2023/05/13 02:23:34;;;;;;;14.88;10.20;;;;;;;10.60;100.00;102020.81;4973741;28;20031;-78
2023/05/13 02:25:59;;;;;;;14.15;11.30;;;;;;;10.71;100.00;102041.00;4974081;28;20434;-77
2023/05/13 02:28:25;;;;;;;11.63;10.43;;;;;;;10.67;100.00;102041.22;4973841;28;20102;-77
2023/05/13 02:30:50;;;;;;;12.35;10.45;;;;;;;10.56;100.00;102027.03;4956001;28;20062;-76
2023/05/13 02:33:15;;;;;;;12.57;11.27;;;;;;;10.57;100.00;102033.88;4973926;28;20394;-76
2023/05/13 02:35:41;;;;;;;13.18;10.98;;;;;;;10.58;100.00;102042.47;4973723;28;20518;-76
2023/05/13 02:38:09;;;;;;;13.75;10.60;;;;;;;10.52;100.00;102045.31;4973726;28;20106;-83
2023/05/13 02:40:35;;;;;;;11.73;10.52;;;;;;;10.50;100.00;102041.97;4973742;28;20034;-82
2023/05/13 02:43:00;;;;;;;13.90;11.30;;;;;;;10.46;100.00;102035.25;4973697;28;20035;-83
2023/05/13 02:45:26;;;;;;;12.18;10.88;;;;;;;10.47;100.00;102029.19;4973946;28;20027;-77
2023/05/13 02:47:51;;;;;;;12.32;10.25;;;;;;;10.45;100.00;102031.00;4973578;28;20489;-76
2023/05/13 02:50:16;;;;;;;12.93;11.32;;;;;;;10.37;100.00;102018.41;4973414;28;20475;-78
2023/05/13 02:52:42;;;;;;;11.38;10.27;;;;;;;10.37;100.00;102023.56;4973500;28;20027;-75
2023/05/13 02:55:08;;;;;;;12.82;10.75;;;;;;;10.30;100.00;102014.41;4973821;28;20027;-76
2023/05/13 02:57:34;;;;;;;12.70;10.75;;;;;;;10.26;100.00;102018.03;4973679;28;20051;-76
2023/05/13 03:00:00;;;;;;;12.23;10.93;;;;;;;10.28;100.00;102024.81;4975810;28;20026;-77
2023/05/13 03:02:26;;;;;;;12.10;10.52;;;;;;;10.23;100.00;102018.19;4977402;28;20050;-77
2023/05/13 03:04:53;;;;;;;13.82;10.65;;;;;;;10.16;100.00;102003.81;4977191;28;20025;-77
2023/05/13 03:07:19;;;;;;;13.20;11.23;;;;;;;10.32;100.00;102031.53;4977474;28;20022;-76
2023/05/13 03:09:44;;;;;;;14.20;11.65;;;;;;;10.27;100.00;102032.63;4977194;28;20023;-76
2023/05/13 03:12:10;;;;;;;12.73;11.05;;;;;;;9.99;100.00;102000.19;4977313;28;20027;-76
2023/05/13 03:14:36;;;;;;;13.00;11.30;;;;;;;9.94;100.00;102012.47;4977424;28;20390;-76
2023/05/13 03:17:02;;;;;;;13.57;10.63;;;;;;;9.91;100.00;102017.72;4975164;28;20074;-76
2023/05/13 03:19:27;;;;;;;14.50;10.80;;;;;;;10.00;100.00;102042.31;4977322;28;20077;-77
2023/05/13 03:21:53;;;;;;;14.18;11.40;;;;;;;9.95;100.00;102031.34;4977046;28;20038;-77
2023/05/13 03:24:18;;;;;;;14.27;11.52;;;;;;;9.70;100.00;101997.97;4977123;28;20063;-76
2023/05/13 03:26:43;;;;;;;13.07;10.93;;;;;;;9.75;100.00;101998.63;4977266;28;20372;-77
2023/05/13 03:29:08;;;;;;;14.48;11.65;;;;;;;9.71;100.00;101989.31;4977058;28;20498;-81
2023/05/13 03:31:34;;;;;;;13.93;11.27;;;;;;;9.78;100.00;102006.25;4976806;28;20031;-78
2023/05/13 03:33:59;;;;;;;16.52;12.07;;;;;;;10.00;100.00;102042.31;4977050;28;20029;-77
2023/05/13 03:36:25;;;;;;;12.55;10.95;;;;;;;9.93;100.00;102028.84;4959582;28;20027;-80
2023/05/13 03:38:50;;;;;;;14.15;12.18;;;;;;;9.67;100.00;101998.09;4976949;28;20030;-80
2023/05/13 03:41:16;;;;;;;14.35;12.38;;;;;;;9.95;100.00;102042.50;4976727;28;20022;-77
2023/05/13 03:43:42;;;;;;;13.55;12.05;;;;;;;9.83;100.00;102027.50;4976806;28;20422;-78
2023/05/13 03:46:07;;;;;;;18.58;12.25;;;;;;;9.95;100.00;102045.09;4976676;28;20364;-77
2023/05/13 03:48:33;;;;;;;15.00;12.30;;;;;;;9.95;100.00;102045.09;4976466;28;20034;-82
2023/05/13 03:50:58;;;;;;;14.80;12.65;;;;;;;9.96;100.00;102049.34;4976773;28;20474;-84
2023/05/13 03:53:23;;;;;;;13.95;12.50;;;;;;;9.88;100.00;102032.50;4976701;28;20497;-83
2023/05/13 03:55:49;;;;;;;13.32;11.93;;;;;;;9.93;100.00;102049.50;4958808;28;20469;-84
2023/05/13 03:58:15;;;;;;;15.30;13.05;;;;;;;9.94;100.00;102048.59;4975669;28;20066;-84
2023/05/13 04:00:45;;;;;;;14.82;12.90;;;;;;;9.90;100.00;102044.44;4975111;28;20478;-85
2023/05/13 04:03:10;;;;;;;15.23;12.20;;;;;;;9.71;100.00;102028.00;4975027;28;20129;-84
2023/05/13 04:05:36;;;;;;;14.07;12.63;;;;;;;9.85;100.00;102048.97;4975401;28;20019;-84
2023/05/13 04:08:01;;;;;;;14.10;12.70;;;;;;;9.86;100.00;102044.63;4975371;28;20037;-75
2023/05/13 04:10:26;;;;;;;16.38;13.07;;;;;;;9.78;100.00;102029.44;4975222;28;20066;-81
2023/05/13 04:12:52;;;;;;;15.05;12.90;;;;;;;9.91;100.00;102048.69;4975152;28;20497;-84
2023/05/13 04:15:17;;;;;;;15.40;13.80;;;;;;;9.91;100.00;102060.75;4975025;28;20066;-81
2023/05/13 04:17:42;;;;;;;15.93;12.90;;;;;;;9.93;100.00;102051.19;4975189;28;20050;-83
2023/05/13 04:20:08;;;;;;;15.20;13.60;;;;;;;9.90;100.00;102044.44;4975254;28;20101;-85
2023/05/13 04:22:34;;;;;;;15.10;13.48;;;;;;;9.98;100.00;102055.28;4974963;28;20552;-83
2023/05/13 04:24:59;;;;;;;14.35;12.85;;;;;;;9.90;100.00;102043.59;4958223;28;20085;-76
2023/05/13 04:27:25;;;;;;;16.27;13.77;;;;;;;10.01;100.00;102060.31;4975116;28;20038;-76
2023/05/13 04:29:50;;;;;;;15.05;12.93;;;;;;;10.07;100.00;102054.06;4975130;28;20038;-75
2023/05/13 04:32:20;;;;;;;16.75;13.32;;;;;;;10.09;100.00;102054.00;4975022;28;20031;-77
2023/05/13 04:34:46;;;;;;;14.90;12.93;;;;;;;10.03;100.00;102043.06;4974796;28;20097;-75
2023/05/13 04:37:12;;;;;;;13.82;12.43;;;;;;;10.20;100.00;102072.47;4974921;28;20022;-77
2023/05/13 04:39:37;;;;;;;14.15;12.65;;;;;;;10.09;100.00;102046.25;4974794;28;20048;-78
2023/05/13 04:42:03;;;;;;;15.02;12.82;;;;;;;10.22;100.00;102063.78;4974571;28;20030;-75
2023/05/13 04:44:28;;;;;;;15.00;13.43;;;;;;;10.32;100.00;102070.25;4974973;28;20030;-77
2023/05/13 04:46:53;;;;;;;15.48;13.38;;;;;;;10.37;100.00;102077.81;4974645;28;20030;-77
2023/05/13 04:49:18;;;;;;;14.68;13.07;;;;;;;10.27;100.00;102054.13;4974522;28;20041;-78
2023/05/13 04:51:44;;;;;;;15.75;13.13;;;;;;;10.28;100.00;102052.38;4974517;28;20034;-76
2023/05/13 04:54:09;;;;;;;16.92;13.38;;;;;;;10.34;100.00;102049.53;4974613;28;20031;-75
2023/05/13 04:56:34;;;;;;;15.65;13.65;;;;;;;10.42;100.00;102055.22;4974508;28;20114;-75
2023/05/13 04:59:00;;;;;;;17.17;13.45;;;;;;;10.56;99.90;102058.03;4938494;28;1073577;-76
2023/05/13 05:01:25;;;;;;;16.00;13.27;;;;;;;11.11;99.39;102076.28;4975340;28;20129;-76
2023/05/13 05:03:50;;;;;;;15.63;13.43;;;;;;;11.75;95.78;102051.72;4975292;28;20030;-78
2023/05/13 05:06:16;;;;;;;15.10;12.45;;;;;;;12.83;90.35;102079.94;4975410;28;20030;-76
2023/05/13 05:08:42;;;;;;;13.65;11.88;;;;;;;13.73;85.63;102035.28;4975276;28;20467;-77
2023/05/13 05:11:08;;;;;;;14.05;10.80;;;;;;;14.93;81.01;102077.53;4975224;28;20026;-75
2023/05/13 05:13:34;;;;;;;13.02;11.00;;;;;;;15.83;76.08;102067.53;4974998;28;20360;-78
2023/05/13 05:15:59;;;;;;;13.00;10.73;;;;;;;16.42;72.83;102068.81;4975438;28;20077;-76
2023/05/13 05:18:24;;;;;;;11.65;10.55;;;;;;;17.03;69.39;102075.03;4975080;28;20542;-80
2023/05/13 05:20:50;;;;;;;11.95;10.02;;;;;;;17.48;66.45;102078.72;4974999;28;20087;-75
2023/05/13 05:23:15;;;;;;;14.40;10.00;;;;;;;17.49;63.77;102066.50;4974614;28;20387;-76
2023/05/13 05:25:40;;;;;;;12.93;9.73;;;;;;;17.78;64.86;102080.09;4974973;28;20038;-78
2023/05/13 05:28:08;;;;;;;11.18;9.60;;;;;;;18.08;62.68;102050.00;4974891;28;20031;-78
2023/05/13 05:30:38;;;;;;;12.35;9.48;;;;;;;18.22;62.71;102050.66;4974790;28;20038;-78
2023/05/13 05:33:05;;;;;;;13.00;10.35;;;;;;;18.79;61.12;102073.31;4974906;28;20403;-76
2023/05/13 05:35:32;;;;;;;11.73;9.55;;;;;;;19.28;59.03;102081.72;4974764;28;20023;-76
2023/05/13 05:37:57;;;;;;;10.77;9.55;;;;;;;19.44;57.15;102089.97;4974712;28;20027;-75
2023/05/13 05:40:22;;;;;;;14.00;9.38;;;;;;;19.48;57.44;102091.41;4974693;28;20029;-80
2023/05/13 05:42:48;;;;;;;12.38;9.70;;;;;;;19.13;56.61;102081.97;4974422;28;20118;-78
2023/05/13 05:45:13;;;;;;;11.35;10.00;;;;;;;18.10;60.45;102075.13;4974585;28;20029;-80
2023/05/13 05:47:38;;;;;;;11.93;9.82;;;;;;;17.81;60.37;102097.34;4974615;28;20033;-80
2023/05/13 05:50:04;;;;;;;11.82;10.40;;;;;;;17.54;61.25;102053.97;4974335;28;20379;-85
2023/05/13 05:52:30;;;;;;;12.00;10.25;;;;;;;18.57;62.01;102096.81;4941243;28;20040;-86
2023/05/13 05:54:55;;;;;;;12.10;10.10;;;;;;;18.83;58.16;102074.72;4936404;29;20380;-84
2023/05/13 05:57:20;;;;;;;12.00;9.98;;;;;;;19.31;57.66;102095.38;4935654;29;20048;-83
2023/05/13 05:59:46;;;;;;;13.43;9.60;;;;;;;18.69;57.85;102045.38;4935805;29;20027;-83
2023/05/13 06:02:11;;;;;;;12.52;10.35;;;;;;;17.84;61.88;102103.16;4935920;29;20391;-81
2023/05/13 06:04:36;;;;;;;11.80;10.18;;;;;;;17.42;62.55;102028.75;4935818;29;20039;-79
2023/05/13 06:07:01;;;;;;;14.38;10.70;;;;;;;18.54;59.98;102057.81;4935633;29;20023;-81
2023/05/13 06:12:11;;;;;;;11.70;9.68;;;;;;;18.61;56.14;101981.34;4936297;29;20123;-79
2023/05/13 06:14:36;;;;;;;11.50;9.95;;;;;;;18.65;58.71;102098.88;4935713;29;20494;-80
2023/05/13 06:17:02;;;;;;;11.90;10.68;;;;;;;18.19;61.22;102094.47;4935852;29;20055;-79
2023/05/13 06:19:27;;;;;;;13.75;10.82;;;;;;;19.30;59.18;102090.28;4935547;29;20075;-80
2023/05/13 06:21:53;;;;;;;13.45;9.77;;;;;;;19.00;57.96;102106.63;4935503;28;20031;-76
2023/05/13 06:24:18;;;;;;;11.82;10.30;;;;;;;18.19;59.79;102110.16;4973602;28;20034;-80
2023/05/13 06:26:44;;;;;;;11.45;10.18;;;;;;;18.33;61.24;102110.81;4973939;28;20041;-79
2023/05/13 06:29:09;;;;;;;12.48;10.40;;;;;;;19.11;58.13;102102.19;4961956;28;20435;-76
2023/05/13 06:31:35;;;;;;;14.00;11.15;;;;;;;19.18;57.64;102110.41;4935974;29;20111;-78
2023/05/13 06:34:00;;;;;;;11.75;10.55;;;;;;;18.17;60.12;102114.69;4934892;29;20059;-77
2023/05/13 06:36:25;;;;;;;12.45;11.15;;;;;;;17.19;63.88;102100.88;4935513;29;20028;-84
2023/05/13 06:38:52;;;;;;;13.88;10.95;;;;;;;18.04;64.04;102122.59;4919074;29;20392;-76
2023/05/13 06:41:17;;;;;;;11.90;10.70;;;;;;;19.31;59.77;102091.94;4935115;29;20039;-86
2023/05/13 06:43:44;;;;;;;14.88;11.00;;;;;;;19.26;58.76;102113.22;4935709;29;20031;-79
2023/05/13 06:46:10;;;;;;;12.07;10.82;;;;;;;18.22;61.39;102094.28;4935449;29;20046;-76
2023/05/13 06:48:35;;;;;;;10.73;9.63;;;;;;;18.69;60.54;102110.78;4935300;29;20024;-75
2023/05/13 06:51:01;;;;;;;15.48;10.88;;;;;;;19.75;59.70;102104.91;4935080;29;20039;-77
2023/05/13 06:53:26;;;;;;;12.32;10.32;;;;;;;20.90;55.08;102111.88;4935216;29;20020;-81
2023/05/13 06:55:51;;;;;;;11.60;9.98;;;;;;;21.77;52.02;102124.38;4935310;29;20397;-85
2023/05/13 06:58:17;;;;;;;19.98;10.82;;;;;;;21.96;51.92;102097.25;4935116;29;20074;-87
2023/05/13 07:00:42;;;;;;;12.15;10.43;;;;;;;21.56;51.33;102124.50;4935376;29;20035;-78
2023/05/13 07:03:07;;;;;;;12.20;10.63;;;;;;;20.95;52.97;102116.75;4935543;29;20035;-82
2023/05/13 07:05:33;;;;;;;13.52;10.50;;;;;;;20.03;55.45;102118.38;4936292;29;20022;-76
2023/05/13 07:07:59;;;;;;;11.70;9.75;;;;;;;18.86;57.86;102118.16;4956819;28;20085;-74
2023/05/13 07:10:24;;;;;;;11.35;10.25;;;;;;;17.83;61.04;102111.13;4973636;28;20463;-74
2023/05/13 07:12:50;;;;;;;13.90;11.48;;;;;;;17.38;64.53;102135.19;4955877;28;20546;-74
2023/05/13 07:15:15;;;;;;;13.13;10.82;;;;;;;17.11;67.35;102129.31;4944795;28;20032;-75
2023/05/13 07:17:41;;;;;;;15.23;12.00;;;;;;;18.29;64.96;102112.00;4935643;29;20028;-74
2023/05/13 07:20:07;;;;;;;13.00;11.27;;;;;;;19.34;60.66;102112.63;4934981;29;20031;-76
2023/05/13 07:22:33;;;;;;;11.82;10.65;;;;;;;19.36;61.47;102115.94;4917329;29;20407;-76
2023/05/13 07:24:59;;;;;;;12.75;10.85;;;;;;;19.37;57.79;102099.28;4935039;29;20054;-77
2023/05/13 07:27:24;;;;;;;15.48;11.35;;;;;;;18.92;59.42;102115.06;4934910;29;20464;-75
2023/05/13 07:29:49;;;;;;;12.80;10.77;;;;;;;18.23;61.97;102119.47;4934849;29;20399;-79
2023/05/13 07:32:15;;;;;;;13.93;11.10;;;;;;;17.52;63.49;102094.22;4934686;29;20024;-82
2023/05/13 07:34:40;;;;;;;13.85;11.00;;;;;;;17.15;66.42;102115.94;4935100;29;20099;-78
2023/05/13 07:37:05;;;;;;;12.57;11.18;;;;;;;16.92;68.27;102120.16;4934742;29;20467;-81
2023/05/13 07:39:31;;;;;;;13.20;11.27;;;;;;;16.91;67.16;102118.47;4933888;29;20027;-77
2023/05/13 07:41:56;;;;;;;13.52;11.82;;;;;;;16.88;70.05;102121.28;4934964;29;20036;-82
2023/05/13 07:44:21;;;;;;;13.93;12.07;;;;;;;16.94;72.16;102111.38;4935110;29;20028;-82
2023/05/13 07:46:48;;;;;;;13.50;11.68;;;;;;;17.06;70.77;102123.56;4937442;29;20030;-78
2023/05/13 07:49:13;;;;;;;14.40;12.00;;;;;;;17.12;69.83;102117.94;4938435;29;20043;-79
2023/05/13 07:51:38;;;;;;;13.35;11.98;;;;;;;17.09;70.45;102125.94;4938207;29;20472;-79
2023/05/13 07:54:04;;;;;;;13.02;11.32;;;;;;;17.05;70.59;102127.13;4938469;29;20035;-79
2023/05/13 07:56:29;;;;;;;15.18;11.93;;;;;;;17.07;72.27;102125.22;4938346;29;20487;-77
2023/05/13 07:58:55;;;;;;;15.07;12.00;;;;;;;17.00;70.52;102110.94;4948094;28;20476;-79
2023/05/13 08:01:20;;;;;;;13.98;12.52;;;;;;;17.08;70.03;102069.47;4957056;29;20090;-86
2023/05/13 08:03:46;;;;;;;13.48;12.07;;;;;;;17.52;70.93;102130.78;4957280;29;20031;-81
2023/05/13 08:06:11;;;;;;;16.67;12.70;;;;;;;17.43;67.89;102119.19;4957007;29;20030;-80
2023/05/13 08:08:36;;;;;;;15.25;12.63;;;;;;;17.39;68.83;102125.56;4957190;29;20042;-77
2023/05/13 08:11:02;;;;;;;13.68;12.20;;;;;;;17.35;69.58;102124.97;4957406;29;20023;-79
2023/05/13 08:13:27;;;;;;;14.70;12.35;;;;;;;17.16;69.96;102125.41;4957081;29;20059;-78
2023/05/13 08:15:53;;;;;;;14.23;12.65;;;;;;;17.00;72.63;102101.31;4956892;29;20024;-73
2023/05/13 08:18:18;;;;;;;14.38;12.88;;;;;;;17.14;71.43;102118.66;4957567;29;20031;-82
2023/05/13 08:20:44;;;;;;;14.15;12.60;;;;;;;17.36;71.27;102108.34;4956750;29;20038;-75
2023/05/13 08:23:09;;;;;;;14.75;12.60;;;;;;;17.60;68.90;102131.03;4957164;29;20078;-81
2023/05/13 08:25:34;;;;;;;14.45;13.05;;;;;;;17.71;69.95;102111.09;4957387;29;20035;-78
2023/05/13 08:28:01;;;;;;;14.65;13.15;;;;;;;17.73;70.69;102130.09;4956856;29;20043;-80
2023/05/13 08:30:26;;;;;;;15.00;13.43;;;;;;;17.58;69.75;102110.25;4956948;29;20031;-76
2023/05/13 08:32:52;;;;;;;15.60;13.23;;;;;;;17.67;69.87;102135.72;4956782;29;20110;-79
2023/05/13 08:35:17;;;;;;;14.68;13.13;;;;;;;17.58;71.27;102098.97;4956689;29;20058;-79
2023/05/13 08:37:42;;;;;;;14.52;13.02;;;;;;;17.78;71.00;102127.97;4939573;29;20114;-81
2023/05/13 08:40:10;;;;;;;14.90;13.40;;;;;;;17.76;69.35;102129.03;4956740;29;20031;-81
2023/05/13 08:42:38;;;;;;;14.02;12.63;;;;;;;17.59;70.44;102116.31;4956469;29;20027;-78
2023/05/13 08:45:06;;;;;;;19.17;13.38;;;;;;;17.63;74.08;102121.22;4956764;29;20106;-85
2023/05/13 08:47:51;;;;;;;14.18;12.55;;;;;;;17.64;72.62;102124.66;4939368;29;20110;-84
2023/05/13 08:50:18;;;;;;;14.38;12.13;;;;;;;17.63;72.12;102125.59;4956611;29;20439;-84
2023/05/13 08:52:44;;;;;;;14.15;12.43;;;;;;;17.70;69.52;102129.47;4956530;29;20081;-83
2023/05/13 08:55:09;;;;;;;12.43;11.13;;;;;;;17.75;73.98;102122.13;4956362;29;20049;-89
2023/05/13 08:57:35;;;;;;;12.32;11.02;;;;;;;17.82;75.28;102114.69;4955644;28;20082;-84
2023/05/13 09:00:00;;;;;;;13.68;12.32;;;;;;;17.85;70.57;102114.44;4956245;29;20039;-86
2023/05/13 09:02:26;;;;;;;13.93;10.50;;;;;;;17.87;67.14;102112.56;4955959;29;20038;-88
2023/05/13 09:04:54;;;;;;;14.13;10.93;;;;;;;17.92;68.50;102118.28;4956540;29;20031;-87
2023/05/13 09:07:19;;;;;;;11.85;10.27;;;;;;;17.99;71.73;102122.97;4956689;29;20034;-77
2023/05/13 09:09:45;;;;;;;13.20;11.40;;;;;;;18.05;73.08;102113.81;4956144;29;20027;-78
2023/05/13 09:12:10;;;;;;;12.27;11.00;;;;;;;18.05;73.15;102096.34;4956135;29;20467;-76
2023/05/13 09:14:36;;;;;;;15.70;10.88;;;;;;;18.23;72.58;102119.47;4956140;29;20527;-76
2023/05/13 09:17:02;;;;;;;13.75;11.43;;;;;;;18.11;71.61;102092.47;4955948;29;20476;-76
2023/05/13 09:19:28;;;;;;;12.13;9.98;;;;;;;18.34;73.73;102109.84;4955926;29;20062;-77
2023/05/13 09:21:53;;;;;;;13.20;11.70;;;;;;;18.20;70.12;102083.94;4955574;29;20059;-77
2023/05/13 09:24:22;;;;;;;13.75;11.20;;;;;;;18.31;70.55;102083.13;4955973;29;20099;-77
2023/05/13 09:26:48;;;;;;;13.82;11.23;;;;;;;18.28;69.22;102080.72;4955893;29;20033;-78
2023/05/13 09:29:20;;;;;;;14.43;11.82;;;;;;;18.48;71.41;102095.72;4955823;29;20020;-77
2023/05/13 09:31:47;;;;;;;;;;;;;;;18.63;70.82;102107.66;4956032;29;20384;-80
2023/05/13 09:34:13;;;;;;;12.27;9.93;;;;;;;18.72;67.09;102098.28;4955638;29;20393;-77
2023/05/13 09:36:40;;;;;;;10.95;9.85;;;;;;;18.59;67.33;102072.22;4955430;29;20027;-74
2023/05/13 09:39:06;;;;;;;12.70;9.55;;;;;;;18.75;64.17;102105.91;4955668;29;20035;-77
2023/05/13 09:41:31;;;;;;;12.27;10.65;;;;;;;18.80;67.22;102092.47;4955500;29;20031;-76
2023/05/13 09:44:00;;;;;;;14.32;9.73;;;;;;;18.89;66.33;102099.59;4955575;29;20027;-77
2023/05/13 09:46:26;;;;;;;12.10;9.77;;;;;;;18.83;65.52;102081.75;4955588;29;20035;-81
2023/05/13 09:48:55;;;;;;;11.55;9.80;;;;;;;18.92;64.91;102094.97;4955253;29;20098;-80
2023/05/13 09:51:25;;;;;;;12.85;10.60;;;;;;;18.97;67.41;102099.81;4955279;29;20149;-80
2023/05/13 09:53:51;;;;;;;10.90;9.48;;;;;;;18.98;63.40;102096.28;4955297;29;20028;-78
2023/05/13 09:56:21;;;;;;;12.38;10.35;;;;;;;18.87;65.25;102063.06;4955386;29;20028;-77
2023/05/13 09:58:51;;;;;;;11.15;9.82;;;;;;;19.07;64.71;102079.81;4955091;29;20040;-87
2023/05/13 10:01:17;;;;;;;13.45;9.95;;;;;;;19.17;64.36;102093.00;4955110;29;20498;-76
2023/05/13 10:03:43;;;;;;;10.50;9.15;;;;;;;19.08;62.71;102064.97;4955223;29;20031;-85
2023/05/13 10:06:08;;;;;;;11.88;8.68;;;;;;;19.20;62.93;102075.28;4955197;29;20050;-80
2023/05/13 10:08:34;;;;;;;10.48;8.35;;;;;;;19.33;64.38;102083.00;4954953;28;20032;-78
2023/05/13 10:11:00;;;;;;;12.70;9.32;;;;;;;19.28;63.40;102060.75;4955150;29;20106;-87
2023/05/13 10:13:30;;;;;;;11.45;9.93;;;;;;;19.52;64.98;102069.25;4955185;29;20056;-87
2023/05/13 10:15:56;;;;;;;12.75;9.43;;;;;;;19.54;62.89;102076.97;4954994;29;20027;-83
2023/05/13 10:18:27;;;;;;;11.07;9.75;;;;;;;19.32;64.71;102034.19;4954994;29;20050;-87
2023/05/13 10:20:53;;;;;;;13.88;10.25;;;;;;;19.67;64.47;102075.06;4954854;29;20061;-80
2023/05/13 10:23:20;;;;;;;10.52;8.02;;;;;;;19.56;62.86;102049.72;4954872;29;20050;-86
2023/05/13 10:25:50;;;;;;;8.98;7.45;;;;;;;19.88;62.12;102075.09;4937943;29;20078;-84
2023/05/13 10:28:16;;;;;;;9.52;8.40;;;;;;;19.91;61.63;102069.59;4954914;29;20027;-86
2023/05/13 10:30:43;;;;;;;10.13;8.02;;;;;;;19.82;58.51;102057.25;4954669;29;20384;-87
2023/05/13 10:33:09;;;;;;;10.00;6.68;;;;;;;19.70;55.89;102040.75;4955075;29;20058;-85
2023/05/13 10:35:37;;;;;;;8.13;6.35;;;;;;;20.02;59.67;102072.97;4954833;29;20031;-84
2023/05/13 10:38:15;;;;;;;9.00;6.35;;;;;;;20.07;57.88;102072.59;4954671;29;20023;-83
2023/05/13 10:41:08;;;;;;;9.40;6.45;;;;;;;20.16;58.25;102063.16;4954709;29;20081;-81
2023/05/13 10:43:34;;;;;;;8.40;5.95;;;;;;;20.21;55.12;102060.94;4955022;29;20185;-84
2023/05/13 10:46:05;;;;;;;9.75;5.70;;;;;;;20.28;57.01;102062.94;4954572;29;20019;-87
2023/05/13 10:48:42;;;;;;;6.95;5.22;;;;;;;20.31;55.79;102067.91;4954334;29;20475;-84
2023/05/13 10:51:12;;;;;;;8.85;5.80;;;;;;;20.38;54.50;102064.78;4954527;29;20054;-84
2023/05/13 10:53:47;;;;;;;8.35;5.28;;;;;;;20.41;54.22;102067.13;4954521;29;20023;-88
2023/05/13 10:56:13;;;;;;;8.43;5.78;;;;;;;20.45;53.48;102055.44;4954754;29;20049;-84
2023/05/13 10:58:38;;;;;;;11.00;6.10;;;;;;;20.55;56.19;102057.16;4952789;29;20035;-83
2023/05/13 11:01:15;;;;;;;7.57;5.93;;;;;;;20.66;56.11;102066.75;4954593;29;20035;-82
2023/05/13 11:03:50;;;;;;;9.38;5.47;;;;;;;20.63;54.04;102046.81;4954405;29;20633;-80
2023/05/13 11:06:18;;;;;;;7.78;4.90;;;;;;;20.63;52.71;102040.75;4954756;29;20027;-88
2023/05/13 11:08:46;;;;;;;13.50;5.30;;;;;;;20.57;52.55;102028.16;4965223;28;20034;-83
2023/05/13 11:11:21;;;;;;;7.13;4.97;;;;;;;20.82;49.92;102059.19;4973981;28;20386;-87